Time;durP1;ratioP1;P1;durP2;ratioP2;P2;SDS_P1;SDS_P2;PMS_P1;PMS_P2;Temp;Humidity;BMP_temperature;BMP_pressure;BME280_temperature;BME280_humidity;BME280_pressure;Samples;Min_cycle;Max_cycle;Signal;HPM_P1;HPM_P2
2023/07/18 00:00:17;;;;;;;4.47;1.57;;;;;;;;;;5046572;28;20287;-46
2023/07/18 00:02:42;;;;;;;3.55;1.05;;;;;;;;;;5064012;28;20033;-46
2023/07/18 00:05:12;;;;;;;2.97;1.20;;;;;;;;;;5064649;28;20043;-46
2023/07/18 00:07:37;;;;;;;5.43;1.45;;;;;;;;;;5064169;28;20032;-46
2023/07/18 00:10:03;;;;;;;3.03;1.30;;;;;;;;;;5065555;28;20103;-46
2023/07/18 00:12:28;;;;;;;3.55;1.30;;;;;;;;;;5059072;28;20033;-46
2023/07/18 00:14:56;;;;;;;4.68;1.20;;;;;;;;;;5065062;28;20051;-46
2023/07/18 00:17:21;;;;;;;7.18;1.88;;;;;;;;;;5060873;28;20024;-46
2023/07/18 00:19:46;;;;;;;3.22;1.38;;;;;;;;;;5065244;28;20382;-46
2023/07/18 00:22:12;;;;;;;2.88;1.23;;;;;;;;;;5066827;28;20105;-46
2023/07/18 00:24:38;;;;;;;2.70;1.40;;;;;;;;;;5066511;28;20032;-46
2023/07/18 00:27:04;;;;;;;5.22;1.50;;;;;;;;;;5069586;28;20262;-46
2023/07/18 00:29:29;;;;;;;4.53;1.50;;;;;;;;;;5067838;28;20028;-46
2023/07/18 00:31:54;;;;;;;11.88;1.30;;;;;;;;;;5065566;28;20036;-46
2023/07/18 00:34:19;;;;;;;3.67;1.33;;;;;;;;;;5060437;28;20021;-46
2023/07/18 00:36:45;;;;;;;3.53;1.70;;;;;;;;;;5063153;28;20071;-46
2023/07/18 00:39:12;;;;;;;3.60;1.13;;;;;;;;;;5062666;28;20025;-46
2023/07/18 00:41:37;;;;;;;2.38;1.00;;;;;;;;;;5063840;28;20516;-46
2023/07/18 00:44:03;;;;;;;4.47;1.57;;;;;;;;;;5063070;28;20123;-46
2023/07/18 00:46:28;;;;;;;3.38;1.00;;;;;;;;;;5066308;28;20270;-46
2023/07/18 00:48:54;;;;;;;3.08;1.38;;;;;;;;;;5061681;28;20037;-46
2023/07/18 00:51:19;;;;;;;3.53;1.30;;;;;;;;;;5059836;28;20028;-46
2023/07/18 00:53:44;;;;;;;3.28;1.58;;;;;;;;;;5061107;28;20079;-46
2023/07/18 00:56:10;;;;;;;4.43;1.48;;;;;;;;;;5058666;28;20048;-46
2023/07/18 00:58:35;;;;;;;4.73;0.97;;;;;;;;;;5059192;28;20020;-46
2023/07/18 01:01:01;;;;;;;2.92;1.40;;;;;;;;;;5059739;28;20653;-46
2023/07/18 01:03:26;;;;;;;3.15;1.10;;;;;;;;;;5062006;28;20082;-46
2023/07/18 01:05:53;;;;;;;2.78;1.10;;;;;;;;;;5065889;28;20036;-46
2023/07/18 01:08:21;;;;;;;3.53;1.50;;;;;;;;;;5071437;28;20788;-46
2023/07/18 01:10:46;;;;;;;4.43;1.30;;;;;;;;;;5056415;28;20036;-46
2023/07/18 01:13:12;;;;;;;4.75;1.33;;;;;;;;;;5045369;28;20021;-46
2023/07/18 01:15:38;;;;;;;4.75;2.05;;;;;;;;;;5068026;28;20024;-46
2023/07/18 01:18:06;;;;;;;3.38;1.60;;;;;;;;;;5065556;28;20070;-46
2023/07/18 01:20:33;;;;;;;4.55;1.60;;;;;;;;;;5062508;28;20658;-46
2023/07/18 01:22:59;;;;;;;2.53;0.90;;;;;;;;;;5061823;28;20498;-46
2023/07/18 01:25:24;;;;;;;6.38;1.52;;;;;;;;;;5057471;28;20043;-46
2023/07/18 01:27:51;;;;;;;2.45;1.27;;;;;;;;;;5057544;28;20020;-46
2023/07/18 01:30:17;;;;;;;3.05;1.45;;;;;;;;;;5060010;28;20024;-46
2023/07/18 01:32:44;;;;;;;3.97;1.55;;;;;;;;;;5065049;28;20111;-46
2023/07/18 01:35:09;;;;;;;4.32;1.55;;;;;;;;;;5063538;28;20401;-46
2023/07/18 01:37:36;;;;;;;3.65;1.20;;;;;;;;;;5066225;28;20021;-46
2023/07/18 01:40:01;;;;;;;3.22;1.08;;;;;;;;;;5068512;28;20019;-46
2023/07/18 01:42:26;;;;;;;3.72;1.55;;;;;;;;;;5065401;28;20727;-46
2023/07/18 01:44:52;;;;;;;2.97;1.20;;;;;;;;;;5068551;28;20495;-46
2023/07/18 01:47:17;;;;;;;7.55;1.58;;;;;;;;;;5063858;28;20104;-46
2023/07/18 01:49:42;;;;;;;3.53;1.53;;;;;;;;;;5070934;28;20462;-46
2023/07/18 01:52:07;;;;;;;3.43;1.40;;;;;;;;;;5066173;28;20279;-46
2023/07/18 01:54:33;;;;;;;6.17;1.73;;;;;;;;;;5064575;28;20270;-46
2023/07/18 01:56:58;;;;;;;3.70;1.40;;;;;;;;;;5059350;28;20361;-46
2023/07/18 01:59:23;;;;;;;3.87;1.50;;;;;;;;;;5064826;28;20035;-45
2023/07/18 02:01:51;;;;;;;3.80;1.97;;;;;;;;;;5063838;28;21532;-46
2023/07/18 02:04:16;;;;;;;3.60;1.15;;;;;;;;;;5066167;28;20119;-46
2023/07/18 02:06:42;;;;;;;4.80;1.42;;;;;;;;;;5065012;28;20115;-46
2023/07/18 02:09:09;;;;;;;4.60;1.60;;;;;;;;;;5068337;28;20032;-46
2023/07/18 02:11:34;;;;;;;3.97;1.80;;;;;;;;;;5066542;28;20108;-46
2023/07/18 02:14:02;;;;;;;3.57;1.60;;;;;;;;;;5067199;28;20100;-46
2023/07/18 02:16:27;;;;;;;5.80;1.55;;;;;;;;;;5065022;28;20738;-46
2023/07/18 02:18:53;;;;;;;3.27;1.60;;;;;;;;;;5065819;28;20055;-46
2023/07/18 02:21:18;;;;;;;5.22;2.15;;;;;;;;;;5061109;28;20282;-46
2023/07/18 02:23:46;;;;;;;3.50;1.60;;;;;;;;;;5069243;28;20570;-46
2023/07/18 02:26:13;;;;;;;4.97;1.65;;;;;;;;;;5063972;28;20291;-46
2023/07/18 02:28:39;;;;;;;4.22;1.52;;;;;;;;;;5070391;28;20089;-46
2023/07/18 02:31:04;;;;;;;7.90;1.87;;;;;;;;;;5065095;28;21686;-46
2023/07/18 02:33:29;;;;;;;4.40;1.80;;;;;;;;;;5069669;28;20313;-46
2023/07/18 02:35:55;;;;;;;6.10;1.47;;;;;;;;;;5064266;28;20344;-46
2023/07/18 02:38:20;;;;;;;7.38;1.70;;;;;;;;;;5065564;28;20017;-46
2023/07/18 02:40:45;;;;;;;4.47;1.67;;;;;;;;;;5068011;28;20044;-46
2023/07/18 02:43:11;;;;;;;4.05;1.95;;;;;;;;;;5066843;28;20342;-46
2023/07/18 02:45:36;;;;;;;5.90;2.03;;;;;;;;;;5081157;28;20025;-46
2023/07/18 02:48:01;;;;;;;7.27;1.87;;;;;;;;;;5063864;28;20266;-46
2023/07/18 02:50:26;;;;;;;4.17;1.83;;;;;;;;;;5072368;28;20749;-46
2023/07/18 02:52:52;;;;;;;4.20;1.70;;;;;;;;;;5070089;28;20287;-46
2023/07/18 02:55:17;;;;;;;5.17;1.90;;;;;;;;;;5067651;28;20744;-45
2023/07/18 02:57:42;;;;;;;6.05;2.00;;;;;;;;;;5066607;28;20039;-46
2023/07/18 03:00:19;;;;;;;7.37;2.47;;;;;;;;;;5066546;28;20112;-45
2023/07/18 03:02:45;;;;;;;3.70;1.13;;;;;;;;;;5069460;28;20052;-46
2023/07/18 03:05:10;;;;;;;3.53;1.40;;;;;;;;;;5064805;28;20059;-46
2023/07/18 03:07:36;;;;;;;5.13;2.40;;;;;;;;;;5065054;28;20471;-46
2023/07/18 03:10:01;;;;;;;6.72;2.13;;;;;;;;;;5057957;28;20083;-46
2023/07/18 03:12:26;;;;;;;5.18;1.90;;;;;;;;;;5064400;28;20112;-46
2023/07/18 03:14:52;;;;;;;5.27;1.93;;;;;;;;;;5065173;28;20104;-46
2023/07/18 03:17:17;;;;;;;7.00;3.20;;;;;;;;;;5065025;28;20760;-46
2023/07/18 03:19:42;;;;;;;5.10;2.47;;;;;;;;;;5068236;28;20265;-46
2023/07/18 03:22:07;;;;;;;6.97;2.20;;;;;;;;;;5066319;28;20262;-46
2023/07/18 03:24:34;;;;;;;5.90;2.30;;;;;;;;;;5062721;28;20020;-46
2023/07/18 03:26:59;;;;;;;4.03;1.83;;;;;;;;;;5060297;28;20275;-45
2023/07/18 03:29:24;;;;;;;4.43;1.83;;;;;;;;;;5061546;28;20032;-46
2023/07/18 03:31:50;;;;;;;4.93;2.40;;;;;;;;;;5068576;28;20834;-46
2023/07/18 03:34:15;;;;;;;6.65;3.00;;;;;;;;;;5060677;28;20315;-46
2023/07/18 03:36:40;;;;;;;5.10;2.57;;;;;;;;;;5062928;28;20048;-46
2023/07/18 03:39:08;;;;;;;5.60;2.10;;;;;;;;;;5062974;28;20672;-46
2023/07/18 03:41:33;;;;;;;4.18;2.20;;;;;;;;;;5068219;28;20278;-46
2023/07/18 03:44:00;;;;;;;6.07;2.33;;;;;;;;;;5067633;28;20589;-46
2023/07/18 03:46:25;;;;;;;4.13;2.10;;;;;;;;;;5065780;28;20301;-46
2023/07/18 03:48:53;;;;;;;5.07;2.28;;;;;;;;;;5065363;28;20053;-46
2023/07/18 03:51:18;;;;;;;6.93;2.50;;;;;;;;;;5064820;28;20034;-46
2023/07/18 03:53:46;;;;;;;5.13;2.35;;;;;;;;;;5065385;28;20016;-46
2023/07/18 03:56:11;;;;;;;7.10;2.60;;;;;;;;;;5062125;28;20024;-46
2023/07/18 03:58:37;;;;;;;6.30;2.40;;;;;;;;;;5065847;28;20024;-46
2023/07/18 04:01:07;;;;;;;5.65;2.67;;;;;;;;;;5064379;28;20049;-46
2023/07/18 04:03:33;;;;;;;8.50;3.78;;;;;;;;;;5068044;28;20020;-46
2023/07/18 04:05:58;;;;;;;5.90;2.40;;;;;;;;;;5061386;28;20027;-46
2023/07/18 04:08:23;;;;;;;5.07;1.93;;;;;;;;;;5060693;28;20020;-46
2023/07/18 04:10:48;;;;;;;7.03;2.17;;;;;;;;;;5064850;28;20879;-46
2023/07/18 04:13:14;;;;;;;5.93;2.42;;;;;;;;;;5065895;28;20036;-46
2023/07/18 04:15:39;;;;;;;6.07;2.53;;;;;;;;;;5068262;28;20383;-46
2023/07/18 04:18:04;;;;;;;5.20;2.50;;;;;;;;;;5064675;28;20025;-46
2023/07/18 04:20:30;;;;;;;5.50;2.70;;;;;;;;;;5060539;28;20028;-46
2023/07/18 04:22:55;;;;;;;5.30;2.40;;;;;;;;;;5063848;28;20064;-46
2023/07/18 04:25:20;;;;;;;6.32;2.75;;;;;;;;;;5061850;28;20282;-46
2023/07/18 04:27:47;;;;;;;5.22;1.77;;;;;;;;;;5067077;28;20033;-46
2023/07/18 04:30:12;;;;;;;6.45;2.50;;;;;;;;;;5064170;28;20102;-45
2023/07/18 04:32:41;;;;;;;7.10;2.08;;;;;;;;;;5059805;28;20064;-45
2023/07/18 04:35:08;;;;;;;6.38;2.72;;;;;;;;;;5058380;28;20028;-46
2023/07/18 04:37:33;;;;;;;6.22;2.78;;;;;;;;;;5066234;28;20027;-46
2023/07/18 04:39:58;;;;;;;7.35;2.50;;;;;;;;;;5064664;28;20025;-46
2023/07/18 04:42:24;;;;;;;6.43;2.70;;;;;;;;;;5062017;28;20016;-46
2023/07/18 04:44:49;;;;;;;11.07;2.57;;;;;;;;;;5066653;28;20637;-46
2023/07/18 04:47:17;;;;;;;5.07;1.90;;;;;;;;;;5071883;28;20265;-46
2023/07/18 04:49:42;;;;;;;7.50;2.47;;;;;;;;;;5069131;28;20259;-46
2023/07/18 04:52:07;;;;;;;3.00;1.67;;;;;;;;;;5059138;28;20030;-46
2023/07/18 04:54:33;;;;;;;6.87;2.40;;;;;;;;;;5063953;28;20278;-46
2023/07/18 04:56:58;;;;;;;5.70;2.50;;;;;;;;;;5064272;28;20024;-46
2023/07/18 04:59:24;;;;;;;4.00;2.03;;;;;;;;;;5064851;28;20012;-46
2023/07/18 05:01:53;;;;;;;4.65;2.28;;;;;;;;;;5061953;28;20271;-46
2023/07/18 05:04:19;;;;;;;6.50;2.10;;;;;;;;;;5062584;28;20049;-46
2023/07/18 05:06:48;;;;;;;4.13;2.03;;;;;;;;;;5060526;28;20602;-46
2023/07/18 05:09:13;;;;;;;5.22;2.60;;;;;;;;;;5065942;28;20374;-45
2023/07/18 05:11:38;;;;;;;5.73;2.13;;;;;;;;;;5066572;28;20505;-46
2023/07/18 05:14:06;;;;;;;7.87;2.10;;;;;;;;;;5068671;28;20341;-46
2023/07/18 05:16:32;;;;;;;4.88;1.92;;;;;;;;;;5083673;28;20028;-46
2023/07/18 05:18:57;;;;;;;7.67;2.33;;;;;;;;;;5066378;28;20103;-46
2023/07/18 05:21:22;;;;;;;7.47;4.00;;;;;;;;;;5068090;28;20286;-46
2023/07/18 05:23:47;;;;;;;5.05;2.28;;;;;;;;;;5069738;28;20309;-45
2023/07/18 05:26:13;;;;;;;8.47;2.33;;;;;;;;;;5066671;28;20108;-46
2023/07/18 05:28:38;;;;;;;6.40;2.22;;;;;;;;;;5071024;28;20271;-46
2023/07/18 05:31:07;;;;;;;8.38;2.70;;;;;;;;;;5071951;28;20398;-46
2023/07/18 05:33:35;;;;;;;6.32;2.80;;;;;;;;;;5067467;28;20491;-46
2023/07/18 05:36:04;;;;;;;4.15;2.40;;;;;;;;;;5055892;28;20020;-45
2023/07/18 05:38:29;;;;;;;5.78;2.30;;;;;;;;;;5062875;28;20433;-46
2023/07/18 05:40:54;;;;;;;7.53;2.60;;;;;;;;;;5067746;28;20479;-45
2023/07/18 05:43:19;;;;;;;8.17;2.50;;;;;;;;;;5081839;28;20284;-46
2023/07/18 05:45:45;;;;;;;5.93;2.40;;;;;;;;;;5064193;28;20275;-46
2023/07/18 05:48:10;;;;;;;8.57;2.73;;;;;;;;;;5068611;28;20362;-46
2023/07/18 05:50:35;;;;;;;6.37;2.70;;;;;;;;;;5081752;28;20695;-46
2023/07/18 05:53:01;;;;;;;6.82;3.20;;;;;;;;;;5072742;28;20287;-46
2023/07/18 05:55:27;;;;;;;6.53;2.63;;;;;;;;;;5067003;28;20017;-46
2023/07/18 05:57:52;;;;;;;8.63;2.58;;;;;;;;;;5066593;28;20021;-46
2023/07/18 06:00:18;;;;;;;4.03;2.22;;;;;;;;;;5067798;28;20024;-46
2023/07/18 06:02:43;;;;;;;11.10;2.60;;;;;;;;;;5063704;28;20033;-46
2023/07/18 06:05:09;;;;;;;8.23;2.78;;;;;;;;;;5066041;28;20035;-46
2023/07/18 06:07:35;;;;;;;6.38;2.17;;;;;;;;;;5066168;28;20012;-46
2023/07/18 06:10:00;;;;;;;4.93;2.40;;;;;;;;;;5068014;28;20029;-46
2023/07/18 06:12:25;;;;;;;10.07;2.20;;;;;;;;;;5067086;28;20028;-46
2023/07/18 06:14:51;;;;;;;6.13;2.40;;;;;;;;;;5070468;28;20086;-46
2023/07/18 06:17:17;;;;;;;6.47;2.38;;;;;;;;;;5065358;28;20047;-46
2023/07/18 06:19:42;;;;;;;7.27;2.73;;;;;;;;;;5071220;28;20091;-46
2023/07/18 06:22:09;;;;;;;8.80;2.23;;;;;;;;;;5069236;28;21563;-46
2023/07/18 06:24:35;;;;;;;10.85;2.40;;;;;;;;;;5065962;28;20303;-46
2023/07/18 06:27:01;;;;;;;5.53;2.60;;;;;;;;;;5068900;28;20477;-46
2023/07/18 06:29:26;;;;;;;7.33;2.67;;;;;;;;;;5067021;28;20505;-46
2023/07/18 06:31:56;;;;;;;7.22;2.65;;;;;;;;;;5067174;28;20348;-46
2023/07/18 06:34:21;;;;;;;9.98;3.95;;;;;;;;;;5067886;28;20546;-46
2023/07/18 06:36:47;;;;;;;4.70;1.98;;;;;;;;;;5065163;28;20103;-46
2023/07/18 06:39:13;;;;;;;6.28;2.03;;;;;;;;;;5065075;28;20109;-46
2023/07/18 06:41:39;;;;;;;5.57;2.20;;;;;;;;;;5052688;28;20032;-46
2023/07/18 06:44:05;;;;;;;4.57;1.80;;;;;;;;;;5062179;28;20030;-46
2023/07/18 06:46:33;;;;;;;3.72;1.85;;;;;;;;;;5064334;28;20041;-46
2023/07/18 06:49:01;;;;;;;9.23;2.80;;;;;;;;;;5067342;28;20111;-46
2023/07/18 06:51:27;;;;;;;9.32;2.40;;;;;;;;;;5057852;28;20039;-46
2023/07/18 06:53:54;;;;;;;7.97;2.17;;;;;;;;;;5063698;28;20024;-46
2023/07/18 06:56:20;;;;;;;10.18;2.35;;;;;;;;;;5064668;28;20325;-46
2023/07/18 06:58:45;;;;;;;9.13;2.10;;;;;;;;;;5063416;28;20048;-46
2023/07/18 07:01:11;;;;;;;12.60;2.38;;;;;;;;;;5062702;28;20027;-46
2023/07/18 07:03:38;;;;;;;7.80;2.28;;;;;;;;;;5073503;28;20466;-46
2023/07/18 07:06:12;;;;;;;6.40;2.45;;;;;;;;;;5073084;28;20047;-46
2023/07/18 07:08:38;;;;;;;11.00;2.35;;;;;;;;;;5068715;28;20021;-46
2023/07/18 07:11:04;;;;;;;5.80;2.08;;;;;;;;;;5065313;28;20031;-46
2023/07/18 07:13:29;;;;;;;7.00;2.25;;;;;;;;;;5069842;28;20027;-46
2023/07/18 07:15:54;;;;;;;6.97;2.00;;;;;;;;;;5067339;28;20028;-46
2023/07/18 07:18:20;;;;;;;5.67;2.03;;;;;;;;;;5069631;28;20103;-46
2023/07/18 07:20:45;;;;;;;8.47;2.20;;;;;;;;;;5064611;28;20807;-46
2023/07/18 07:23:10;;;;;;;2.87;1.70;;;;;;;;;;5067309;28;20104;-46
2023/07/18 07:25:35;;;;;;;5.13;1.87;;;;;;;;;;5069782;28;20020;-46
2023/07/18 07:28:01;;;;;;;9.93;2.10;;;;;;;;;;5067411;28;20323;-46
2023/07/18 07:30:26;;;;;;;6.50;2.73;;;;;;;;;;5064918;28;20285;-46
2023/07/18 07:32:52;;;;;;;9.73;2.20;;;;;;;;;;5065751;28;20359;-46
2023/07/18 07:35:22;;;;;;;7.63;2.85;;;;;;;;;;5056203;28;20503;-46
2023/07/18 07:37:49;;;;;;;3.70;1.52;;;;;;;;;;5067072;28;20043;-46
2023/07/18 07:40:15;;;;;;;8.40;2.05;;;;;;;;;;5060091;28;20073;-46
2023/07/18 07:42:42;;;;;;;6.45;2.20;;;;;;;;;;5059855;28;20024;-46
2023/07/18 07:45:08;;;;;;;8.90;2.20;;;;;;;;;;5066070;28;20024;-46
2023/07/18 07:47:33;;;;;;;5.88;2.17;;;;;;;;;;5065186;28;20127;-46
2023/07/18 07:49:59;;;;;;;3.33;1.50;;;;;;;;;;5065374;28;20020;-46
2023/07/18 07:52:24;;;;;;;3.80;1.13;;;;;;;;;;5066695;28;20032;-46
2023/07/18 07:54:50;;;;;;;6.60;1.83;;;;;;;;;;5064688;28;20027;-46
2023/07/18 07:57:17;;;;;;;5.30;1.93;;;;;;;;;;5063622;28;20024;-46
2023/07/18 07:59:42;;;;;;;10.60;2.05;;;;;;;;;;5072200;28;20016;-46
2023/07/18 08:02:08;;;;;;;4.60;1.50;;;;;;;;;;5085499;28;20123;-46
2023/07/18 08:04:33;;;;;;;3.33;1.80;;;;;;;;;;5067573;28;20020;-46
2023/07/18 08:06:58;;;;;;;6.83;2.00;;;;;;;;;;5064771;28;20028;-46
2023/07/18 08:09:24;;;;;;;4.65;1.77;;;;;;;;;;5066437;28;20271;-46
2023/07/18 08:11:49;;;;;;;9.73;1.63;;;;;;;;;;5066100;28;20036;-46
2023/07/18 08:14:15;;;;;;;6.68;2.20;;;;;;;;;;5067966;28;20275;-47
2023/07/18 08:16:40;;;;;;;7.43;1.85;;;;;;;;;;5061739;28;20028;-46
2023/07/18 08:19:07;;;;;;;7.28;1.92;;;;;;;;;;5066118;28;20024;-46
2023/07/18 08:21:33;;;;;;;6.93;1.92;;;;;;;;;;5059937;28;20024;-46
2023/07/18 08:23:58;;;;;;;7.45;2.40;;;;;;;;;;5058787;28;20029;-46
2023/07/18 08:26:23;;;;;;;2.83;1.53;;;;;;;;;;5066066;28;20025;-46
2023/07/18 08:28:49;;;;;;;7.80;1.67;;;;;;;;;;5060832;28;20271;-46
2023/07/18 08:31:16;;;;;;;6.80;1.90;;;;;;;;;;5063009;28;20362;-46
2023/07/18 08:33:42;;;;;;;3.92;1.45;;;;;;;;;;5068025;28;20017;-46
2023/07/18 08:36:07;;;;;;;4.55;1.33;;;;;;;;;;5062572;28;20032;-46
2023/07/18 08:38:32;;;;;;;3.40;1.63;;;;;;;;;;5064763;28;20017;-46
2023/07/18 08:41:00;;;;;;;5.07;1.60;;;;;;;;;;5062469;28;20053;-46
2023/07/18 08:43:26;;;;;;;5.15;1.48;;;;;;;;;;5068001;28;20267;-46
2023/07/18 08:45:52;;;;;;;3.08;1.40;;;;;;;;;;5062107;28;20025;-46
2023/07/18 08:48:19;;;;;;;4.88;1.67;;;;;;;;;;5060931;28;20017;-46
2023/07/18 08:50:45;;;;;;;6.07;1.70;;;;;;;;;;5063922;28;20017;-46
2023/07/18 08:53:10;;;;;;;8.43;1.73;;;;;;;;;;5060456;28;20078;-46
2023/07/18 08:55:36;;;;;;;5.50;1.65;;;;;;;;;;5061586;28;20271;-46
2023/07/18 08:58:04;;;;;;;6.70;1.77;;;;;;;;;;5059389;28;20213;-47
2023/07/18 09:00:30;;;;;;;4.22;1.40;;;;;;;;;;5065067;28;20021;-46
2023/07/18 09:02:55;;;;;;;3.80;1.40;;;;;;;;;;5062172;28;20031;-46
2023/07/18 09:05:34;;;;;;;4.47;1.37;;;;;;;;;;5064777;28;20886;-46
2023/07/18 09:08:00;;;;;;;4.55;1.40;;;;;;;;;;5065393;28;20275;-46
2023/07/18 09:10:26;;;;;;;4.82;1.55;;;;;;;;;;5062958;28;20158;-46
2023/07/18 09:12:52;;;;;;;4.55;1.70;;;;;;;;;;5058417;28;20025;-46
2023/07/18 09:15:19;;;;;;;4.07;1.40;;;;;;;;;;5059732;28;20063;-46
2023/07/18 09:17:47;;;;;;;5.60;1.75;;;;;;;;;;5068782;28;20015;-46
2023/07/18 09:20:16;;;;;;;3.10;1.23;;;;;;;;;;5058029;28;20028;-46
2023/07/18 09:22:41;;;;;;;3.28;1.65;;;;;;;;;;5068036;28;20020;-46
2023/07/18 09:25:07;;;;;;;4.97;1.20;;;;;;;;;;5067941;28;20032;-46
2023/07/18 09:27:35;;;;;;;6.85;1.65;;;;;;;;;;5069223;28;20332;-46
2023/07/18 09:30:03;;;;;;;4.63;1.73;;;;;;;;;;5065754;28;20099;-46
2023/07/18 09:32:29;;;;;;;4.97;1.45;;;;;;;;;;5065785;28;20036;-46
2023/07/18 09:34:56;;;;;;;6.18;2.45;;;;;;;;;;5068408;28;20020;-46
2023/07/18 09:37:21;;;;;;;2.92;1.30;;;;;;;;;;5056625;28;20012;-46
2023/07/18 09:39:47;;;;;;;5.55;1.48;;;;;;;;;;5061580;28;20467;-46
2023/07/18 09:42:13;;;;;;;7.32;1.73;;;;;;;;;;5053473;28;20125;-46
2023/07/18 09:44:39;;;;;;;3.63;1.30;;;;;;;;;;5065986;28;20024;-46
2023/07/18 09:47:05;;;;;;;3.85;1.10;;;;;;;;;;5062901;28;20286;-46
2023/07/18 09:49:32;;;;;;;4.40;1.10;;;;;;;;;;5068466;28;20032;-46
2023/07/18 09:52:01;;;;;;;5.35;1.70;;;;;;;;;;5061466;28;20036;-46
2023/07/18 09:54:27;;;;;;;2.30;0.88;;;;;;;;;;5060991;28;20020;-46
2023/07/18 09:56:54;;;;;;;3.42;1.55;;;;;;;;;;5068083;28;20039;-46
2023/07/18 09:59:20;;;;;;;5.45;1.80;;;;;;;;;;5066943;28;20040;-46
2023/07/18 10:01:46;;;;;;;4.20;2.50;;;;;;;;;;5062530;28;20033;-46
2023/07/18 10:04:12;;;;;;;6.13;1.13;;;;;;;;;;5052520;28;20035;-47
2023/07/18 10:06:37;;;;;;;4.07;1.45;;;;;;;;;;5072768;28;20382;-46
2023/07/18 10:09:03;;;;;;;3.30;0.95;;;;;;;;;;5074594;28;20028;-46
2023/07/18 10:11:28;;;;;;;3.25;1.63;;;;;;;;;;5065660;28;21120;-46
2023/07/18 10:14:06;;;;;;;4.82;2.20;;;;;;;;;;5072049;28;20016;-46
2023/07/18 10:16:36;;;;;;;5.43;1.30;;;;;;;;;;5063806;28;20506;-46
2023/07/18 10:19:23;;;;;;;6.68;1.27;;;;;;;;;;5067674;28;20028;-46
2023/07/18 10:21:50;;;;;;;3.22;1.20;;;;;;;;;;5082652;28;20051;-46
2023/07/18 10:24:23;;;;;;;5.78;1.60;;;;;;;;;;5074207;28;20024;-46
2023/07/18 10:26:51;;;;;;;3.60;2.28;;;;;;;;;;5066864;28;20102;-46
2023/07/18 10:29:16;;;;;;;3.42;0.98;;;;;;;;;;5073850;28;20099;-46
2023/07/18 10:31:41;;;;;;;4.77;1.20;;;;;;;;;;5066980;28;20108;-46
2023/07/18 10:34:15;;;;;;;3.97;1.40;;;;;;;;;;5065794;28;20943;-46
2023/07/18 10:36:54;;;;;;;2.95;1.23;;;;;;;;;;5067642;28;20024;-46
2023/07/18 10:39:34;;;;;;;6.32;1.70;;;;;;;;;;5065536;28;20371;-46
2023/07/18 10:42:04;;;;;;;3.80;1.23;;;;;;;;;;5066102;28;20047;-46
2023/07/18 10:44:30;;;;;;;3.45;1.63;;;;;;;;;;5061632;28;20155;-46
2023/07/18 10:46:55;;;;;;;5.53;1.98;;;;;;;;;;5065486;28;20099;-46
2023/07/18 10:49:26;;;;;;;7.30;1.97;;;;;;;;;;5069614;28;20111;-46
2023/07/18 10:51:54;;;;;;;7.75;1.15;;;;;;;;;;5061184;28;20036;-46
2023/07/18 10:54:20;;;;;;;4.07;1.55;;;;;;;;;;5065828;28;20115;-46
2023/07/18 10:56:48;;;;;;;4.53;1.53;;;;;;;;;;5073389;28;20120;-46
2023/07/18 10:59:14;;;;;;;4.60;1.73;;;;;;;;;;5072384;22;20041;-45
2023/07/18 11:01:39;;;;;;;2.88;1.05;;;;;;;;;;5064217;28;20043;-44
2023/07/18 11:04:05;;;;;;;5.38;1.85;;;;;;;;;;5050863;28;20017;-44
2023/07/18 11:06:30;;;;;;;3.80;1.15;;;;;;;;;;5049911;28;20033;-45
2023/07/18 11:08:56;;;;;;;3.73;1.07;;;;;;;;;;5050391;28;20033;-44
2023/07/18 11:11:21;;;;;;;3.60;1.37;;;;;;;;;;5049196;28;20294;-44
2023/07/18 11:13:46;;;;;;;3.70;1.10;;;;;;;;;;5050584;28;20283;-45
2023/07/18 11:16:15;;;;;;;3.75;1.20;;;;;;;;;;5039492;28;20278;-44
2023/07/18 11:18:50;;;;;;;4.45;1.25;;;;;;;;;;5044734;28;20016;-45
2023/07/18 11:21:17;;;;;;;4.65;1.90;;;;;;;;;;5051022;28;20060;-45
2023/07/18 11:23:42;;;;;;;3.75;1.02;;;;;;;;;;5047772;28;20071;-44
2023/07/18 11:26:12;;;;;;;4.55;1.40;;;;;;;;;;5064880;28;20021;-44
2023/07/18 11:28:37;;;;;;;8.70;1.60;;;;;;;;;;5048476;28;20020;-44
2023/07/18 11:31:03;;;;;;;3.70;1.00;;;;;;;;;;5054272;28;20070;-45
2023/07/18 11:33:28;;;;;;;4.87;1.50;;;;;;;;;;5051261;28;20391;-44
2023/07/18 11:35:56;;;;;;;3.00;1.70;;;;;;;;;;5046194;28;20276;-45
2023/07/18 11:38:24;;;;;;;3.10;1.40;;;;;;;;;;5051344;28;20147;-44
2023/07/18 11:40:49;;;;;;;5.13;1.30;;;;;;;;;;5064420;28;20060;-45
2023/07/18 11:43:18;;;;;;;9.77;1.38;;;;;;;;;;5048798;28;20056;-44
2023/07/18 11:45:43;;;;;;;8.77;3.72;;;;;;;;;;5047917;28;20021;-45
2023/07/18 11:48:09;;;;;;;5.25;1.55;;;;;;;;;;5062728;28;20078;-45
2023/07/18 11:50:34;;;;;;;8.18;1.70;;;;;;;;;;5047340;28;20143;-44
2023/07/18 11:53:01;;;;;;;7.20;2.08;;;;;;;;;;5043311;28;20406;-45
2023/07/18 11:55:27;;;;;;;5.63;1.42;;;;;;;;;;5047708;28;20021;-44
2023/07/18 11:57:52;;;;;;;6.83;1.40;;;;;;;;;;5048309;28;20032;-45
2023/07/18 12:00:18;;;;;;;3.78;1.15;;;;;;;;;;5050115;28;20497;-45
2023/07/18 12:02:44;;;;;;;3.47;1.20;;;;;;;;;;5048687;28;20041;-45
2023/07/18 12:05:10;;;;;;;4.90;1.25;;;;;;;;;;5032690;28;20060;-45
2023/07/18 12:07:35;;;;;;;3.67;1.10;;;;;;;;;;5051750;28;20099;-45
2023/07/18 12:10:01;;;;;;;3.20;1.25;;;;;;;;;;5046224;28;20024;-45
2023/07/18 12:12:26;;;;;;;5.00;1.75;;;;;;;;;;5062868;28;20037;-45
2023/07/18 12:14:52;;;;;;;5.72;1.35;;;;;;;;;;5044985;28;20471;-45
2023/07/18 12:17:17;;;;;;;2.97;1.20;;;;;;;;;;5049041;28;20025;-45
2023/07/18 12:19:44;;;;;;;4.38;1.85;;;;;;;;;;5046353;28;20086;-45
2023/07/18 12:22:09;;;;;;;4.18;1.27;;;;;;;;;;5047574;28;20025;-45
2023/07/18 12:24:35;;;;;;;3.20;1.20;;;;;;;;;;5030829;28;20029;-45
2023/07/18 12:27:00;;;;;;;3.77;1.27;;;;;;;;;;5050433;28;20025;-44
2023/07/18 12:29:25;;;;;;;5.82;1.40;;;;;;;;;;5039798;28;20358;-45
2023/07/18 12:31:51;;;;;;;6.47;1.63;;;;;;;;;;5048328;28;20158;-44
2023/07/18 12:34:17;;;;;;;3.67;1.83;;;;;;;;;;5047131;28;20272;-44
2023/07/18 12:36:43;;;;;;;3.80;1.23;;;;;;;;;;5045849;28;20013;-45
2023/07/18 12:39:08;;;;;;;4.05;1.20;;;;;;;;;;5048080;28;20013;-45
2023/07/18 12:41:34;;;;;;;4.03;1.20;;;;;;;;;;5061976;28;20067;-44
2023/07/18 12:44:00;;;;;;;2.80;1.13;;;;;;;;;;5047724;28;20291;-45
2023/07/18 12:46:26;;;;;;;4.35;1.20;;;;;;;;;;5032418;28;20029;-44
2023/07/18 12:48:55;;;;;;;2.67;1.23;;;;;;;;;;5032587;28;20031;-45
2023/07/18 12:51:23;;;;;;;5.68;1.10;;;;;;;;;;5047335;28;20025;-45
2023/07/18 12:53:49;;;;;;;4.53;0.93;;;;;;;;;;5032246;28;20747;-44
2023/07/18 12:56:16;;;;;;;2.85;1.15;;;;;;;;;;5051614;28;20025;-45
2023/07/18 12:58:42;;;;;;;5.35;1.30;;;;;;;;;;5047816;28;20124;-45
2023/07/18 13:01:07;;;;;;;4.15;1.30;;;;;;;;;;5028101;28;20111;-45
2023/07/18 13:03:33;;;;;;;4.22;1.15;;;;;;;;;;5045226;28;20037;-45
2023/07/18 13:05:58;;;;;;;5.30;1.25;;;;;;;;;;5046854;28;20558;-45
2023/07/18 13:08:24;;;;;;;11.00;1.70;;;;;;;;;;5041096;28;20037;-45
2023/07/18 13:10:49;;;;;;;4.47;1.45;;;;;;;;;;5049722;28;20021;-45
2023/07/18 13:13:14;;;;;;;2.42;1.17;;;;;;;;;;5050024;28;20059;-45
2023/07/18 13:15:39;;;;;;;3.77;1.23;;;;;;;;;;5063902;28;20017;-45
2023/07/18 13:18:05;;;;;;;2.55;1.05;;;;;;;;;;5048723;28;20645;-45
2023/07/18 13:20:30;;;;;;;6.50;1.10;;;;;;;;;;5021695;28;20399;-45
2023/07/18 13:22:55;;;;;;;3.30;0.80;;;;;;;;;;5051910;28;20493;-44
2023/07/18 13:25:21;;;;;;;3.03;0.95;;;;;;;;;;5047161;28;20275;-45
2023/07/18 13:27:46;;;;;;;4.63;1.20;;;;;;;;;;5048204;28;20573;-45
2023/07/18 13:30:12;;;;;;;2.10;0.67;;;;;;;;;;5030048;28;20040;-45
2023/07/18 13:32:37;;;;;;;4.03;0.98;;;;;;;;;;5048539;28;20280;-45
2023/07/18 13:35:02;;;;;;;4.33;1.57;;;;;;;;;;5049168;28;20056;-45
2023/07/18 13:37:28;;;;;;;9.02;1.40;;;;;;;;;;5063843;28;20271;-44
2023/07/18 13:39:53;;;;;;;3.07;0.90;;;;;;;;;;5049145;28;20025;-45
2023/07/18 13:42:18;;;;;;;4.43;1.30;;;;;;;;;;5051124;28;20753;-45
2023/07/18 13:44:44;;;;;;;2.47;0.77;;;;;;;;;;5053127;28;20017;-45
2023/07/18 13:47:09;;;;;;;3.50;1.33;;;;;;;;;;5053654;28;20502;-45
2023/07/18 13:49:36;;;;;;;3.93;0.90;;;;;;;;;;5048584;28;20502;-45
2023/07/18 13:52:02;;;;;;;2.30;1.10;;;;;;;;;;5047329;28;20033;-45
2023/07/18 13:54:27;;;;;;;6.20;1.35;;;;;;;;;;5034133;28;20457;-45
2023/07/18 13:56:52;;;;;;;4.07;1.10;;;;;;;;;;5054418;28;20020;-45
2023/07/18 13:59:17;;;;;;;5.20;1.17;;;;;;;;;;5048731;28;20447;-45
2023/07/18 14:01:43;;;;;;;4.23;1.20;;;;;;;;;;5048119;28;20283;-45
2023/07/18 14:04:09;;;;;;;2.30;0.90;;;;;;;;;;5053594;28;20116;-45
2023/07/18 14:06:34;;;;;;;3.03;1.03;;;;;;;;;;5048854;28;20495;-45
2023/07/18 14:08:59;;;;;;;3.20;0.90;;;;;;;;;;5066316;28;20021;-45
2023/07/18 14:11:25;;;;;;;3.85;1.00;;;;;;;;;;5050613;28;20329;-45
2023/07/18 14:13:52;;;;;;;2.97;1.00;;;;;;;;;;5049743;28;20026;-45
2023/07/18 14:16:17;;;;;;;2.35;1.08;;;;;;;;;;5051496;28;20105;-45
2023/07/18 14:18:43;;;;;;;3.97;1.50;;;;;;;;;;5048407;28;20092;-45
2023/07/18 14:21:08;;;;;;;3.17;1.27;;;;;;;;;;5048677;28;20251;-45
2023/07/18 14:23:33;;;;;;;7.60;1.30;;;;;;;;;;5050278;28;20267;-45
2023/07/18 14:25:59;;;;;;;2.87;1.10;;;;;;;;;;5048800;28;20060;-45
2023/07/18 14:28:24;;;;;;;1.43;0.70;;;;;;;;;;5050542;28;20656;-45
2023/07/18 14:30:49;;;;;;;2.30;1.03;;;;;;;;;;5051198;28;20021;-45
2023/07/18 14:33:16;;;;;;;4.25;1.08;;;;;;;;;;5050750;28;20290;-46
2023/07/18 14:35:42;;;;;;;5.22;1.15;;;;;;;;;;5050200;28;20028;-45